createdAt,value
2022-12-07T00:01:48.267Z,100417.50
2022-12-07T00:04:22.794Z,100419.94
2022-12-07T00:06:56.682Z,100416.13
2022-12-07T00:09:24.200Z,100410.25
2022-12-07T00:12:00.787Z,100410.72
2022-12-07T00:14:34.833Z,100407.59
2022-12-07T00:17:02.046Z,100406.00
2022-12-07T00:19:32.362Z,100408.06
2022-12-07T00:22:01.927Z,100407.72
2022-12-07T00:24:34.782Z,100422.22
2022-12-07T00:27:08.354Z,100420.59
2022-12-07T00:29:42.276Z,100419.94
2022-12-07T00:32:16.612Z,100418.44
2022-12-07T00:34:50.115Z,100426.50
2022-12-07T00:37:23.883Z,100421.19
2022-12-07T00:39:53.598Z,100422.56
2022-12-07T00:42:21.085Z,100414.25
2022-12-07T00:44:51.965Z,100421.28
2022-12-07T00:47:22.565Z,100413.59
2022-12-07T00:49:53.382Z,100409.66
2022-12-07T00:52:23.323Z,100407.72
2022-12-07T00:54:54.002Z,100409.88
2022-12-07T00:57:26.189Z,100409.88
2022-12-07T00:59:53.354Z,100417.41
2022-12-07T01:02:26.427Z,100409.53
2022-12-07T01:04:57.847Z,100397.81
2022-12-07T01:07:31.399Z,100400.56
2022-12-07T01:09:58.663Z,100391.59
2022-12-07T01:12:35.836Z,100390.06
2022-12-07T01:15:06.206Z,100381.50
2022-12-07T01:17:42.233Z,100380.59
2022-12-07T01:20:10.417Z,100370.13
2022-12-07T01:22:42.939Z,100368.75
2022-12-07T01:25:13.433Z,100366.22
2022-12-07T01:27:43.222Z,100366.00
2022-12-07T01:30:11.963Z,100362.97
2022-12-07T01:32:45.606Z,100366.53
2022-12-07T01:35:19.190Z,100359.28
2022-12-07T01:37:52.023Z,100359.88
2022-12-07T01:40:22.086Z,100357.09
2022-12-07T01:42:55.313Z,100355.94
2022-12-07T01:45:40.598Z,100356.19
2022-12-07T01:48:10.964Z,100359.53
2022-12-07T01:50:46.551Z,100362.31
2022-12-07T01:53:22.884Z,100359.88
2022-12-07T01:55:56.029Z,100352.97
2022-12-07T01:58:29.333Z,100355.38
2022-12-07T02:01:05.053Z,100355.13
2022-12-07T02:03:44.511Z,100355.66
2022-12-07T02:06:19.992Z,100364.00
2022-12-07T02:08:52.703Z,100362.84
2022-12-07T02:11:23.178Z,100358.91
2022-12-07T02:13:53.988Z,100359.81
2022-12-07T02:16:45.393Z,100360.31
2022-12-07T02:19:21.663Z,100364.13
2022-12-07T02:21:59.955Z,100353.03
2022-12-07T02:24:51.573Z,100351.41
2022-12-07T02:27:39.967Z,100347.44
2022-12-07T02:30:17.327Z,100342.69
2022-12-07T02:32:56.612Z,100334.19
2022-12-07T02:35:53.714Z,100329.69
2022-12-07T02:38:44.326Z,100330.25
2022-12-07T02:41:37.042Z,100329.19
2022-12-07T02:44:14.554Z,100327.97
2022-12-07T02:46:48.394Z,100321.88
2022-12-07T02:49:23.326Z,100318.28
2022-12-07T02:51:57.085Z,100318.28
2022-12-07T02:54:24.945Z,100324.72
2022-12-07T02:57:34.114Z,100319.63
2022-12-07T03:00:16.006Z,100323.19
2022-12-07T03:03:08.388Z,100314.09
2022-12-07T03:05:35.557Z,100321.25
2022-12-07T03:08:15.519Z,100299.81
2022-12-07T03:10:49.016Z,100299.47
2022-12-07T03:13:26.814Z,100292.44
2022-12-07T03:16:02.449Z,100295.63
2022-12-07T03:18:51.806Z,100296.31
2022-12-07T03:21:28.485Z,100294.97
2022-12-07T03:24:01.614Z,100292.91
2022-12-07T03:26:36.770Z,100297.06
2022-12-07T03:29:15.323Z,100295.69
2022-12-07T03:31:56.806Z,100300.50
2022-12-07T03:34:47.707Z,100298.19
2022-12-07T03:37:27.214Z,100293.69
2022-12-07T03:39:57.198Z,100295.09
2022-12-07T03:42:31.514Z,100301.53
2022-12-07T03:45:04.990Z,100301.84
2022-12-07T03:47:54.336Z,100310.91
2022-12-07T03:50:56.082Z,100312.03
2022-12-07T03:53:47.603Z,100312.13
2022-12-07T03:56:18.138Z,100304.94
2022-12-07T03:58:45.453Z,100302.91
2022-12-07T04:01:16.455Z,100304.84
2022-12-07T04:03:46.579Z,100297.94
2022-12-07T04:06:17.596Z,100292.41
2022-12-07T04:08:45.614Z,100283.41
2022-12-07T04:11:18.762Z,100285.16
2022-12-07T04:13:52.581Z,100280.50
2022-12-07T04:16:23.317Z,100275.53
2022-12-07T04:18:50.911Z,100278.88
2022-12-07T04:21:19.376Z,100272.03
2022-12-07T04:23:52.631Z,100275.59
2022-12-07T04:26:26.049Z,100273.31
2022-12-07T04:28:56.961Z,100266.97
2022-12-07T04:31:24.199Z,100266.72
2022-12-07T04:33:51.782Z,100271.78
2022-12-07T04:36:19.016Z,100273.75
2022-12-07T04:38:49.908Z,100264.19
2022-12-07T04:41:20.789Z,100288.56
2022-12-07T04:43:51.280Z,100283.28
2022-12-07T04:46:24.885Z,100290.22
2022-12-07T04:48:53.784Z,100299.06
2022-12-07T04:51:28.996Z,100289.16
2022-12-07T04:54:09.213Z,100294.06
2022-12-07T04:56:40.993Z,100296.69
2022-12-07T04:59:12.938Z,100301.41
2022-12-07T05:01:47.411Z,100304.16
2022-12-07T05:04:21.707Z,100305.13
2022-12-07T05:06:55.948Z,100300.63
2022-12-07T05:09:26.548Z,100306.75
2022-12-07T05:11:55.198Z,100307.56
2022-12-07T05:14:22.989Z,100301.47
2022-12-07T05:16:53.538Z,100297.88
2022-12-07T05:19:24.625Z,100285.47
2022-12-07T05:21:54.761Z,100278.81
2022-12-07T05:24:26.436Z,100280.56
2022-12-07T05:27:03.892Z,100290.97
2022-12-07T05:29:34.351Z,100286.81
2022-12-07T05:32:07.514Z,100276.78
2022-12-07T05:34:40.096Z,100258.44
2022-12-07T05:37:13.591Z,100260.81
2022-12-07T05:39:51.304Z,100258.16
2022-12-07T05:42:18.512Z,100250.09
2022-12-07T05:44:52.122Z,100259.78
2022-12-07T05:47:19.341Z,100259.41
2022-12-07T05:49:52.370Z,100262.41
2022-12-07T05:52:23.437Z,100262.88
2022-12-07T05:54:53.661Z,100268.47
2022-12-07T05:57:23.898Z,100274.44
2022-12-07T05:59:55.089Z,100285.44
2022-12-07T06:02:26.155Z,100263.75
2022-12-07T06:04:56.924Z,100261.13
2022-12-07T06:07:28.085Z,100268.25
2022-12-07T06:10:00.118Z,100272.41
2022-12-07T06:12:43.912Z,100272.31
2022-12-07T06:15:15.930Z,100274.66
2022-12-07T06:18:04.123Z,100276.25
2022-12-07T06:20:36.881Z,100274.06
2022-12-07T06:23:08.054Z,100272.69
2022-12-07T06:25:47.249Z,100277.03
2022-12-07T06:28:23.435Z,100275.78
2022-12-07T06:31:00.440Z,100281.88
2022-12-07T06:33:28.608Z,100288.88
2022-12-07T06:36:00.106Z,100290.66
2022-12-07T06:38:34.224Z,100278.69
2022-12-07T06:41:04.654Z,100280.19
2022-12-07T06:43:44.718Z,100281.69
2022-12-07T06:46:16.733Z,100280.88
2022-12-07T06:48:47.579Z,100287.47
2022-12-07T06:51:18.838Z,100287.22
2022-12-07T06:53:46.435Z,100288.59
2022-12-07T06:56:23.255Z,100294.00
2022-12-07T06:58:57.616Z,100290.97
2022-12-07T07:01:30.870Z,100297.69
2022-12-07T07:04:07.364Z,100294.25
2022-12-07T07:06:38.392Z,100298.38
2022-12-07T07:09:11.847Z,100306.72
2022-12-07T07:11:39.100Z,100306.06
2022-12-07T07:14:19.463Z,100311.28
2022-12-07T07:16:54.235Z,100312.56
2022-12-07T07:19:27.248Z,100308.53
2022-12-07T07:21:55.545Z,100314.41
2022-12-07T07:24:32.393Z,100306.47
2022-12-07T07:27:00.087Z,100302.28
2022-12-07T07:29:38.095Z,100298.97
2022-12-07T07:32:14.564Z,100294.91
2022-12-07T07:34:45.557Z,100301.97
2022-12-07T07:37:21.762Z,100305.94
2022-12-07T07:39:53.170Z,100297.47
2022-12-07T07:42:26.492Z,100300.22
2022-12-07T07:44:54.403Z,100303.91
2022-12-07T07:47:21.574Z,100297.31
2022-12-07T07:49:52.142Z,100306.81
2022-12-07T07:52:22.157Z,100304.47
2022-12-07T07:54:49.770Z,100294.25
2022-12-07T07:57:22.426Z,100301.03
2022-12-07T07:59:52.652Z,100293.88
2022-12-07T08:02:25.521Z,100300.66
2022-12-07T08:05:00.333Z,100304.00
2022-12-07T08:07:33.454Z,100302.78
2022-12-07T08:10:05.378Z,100299.06
2022-12-07T08:12:37.906Z,100305.66
2022-12-07T08:15:10.186Z,100302.44
2022-12-07T08:17:41.313Z,100297.94
2022-12-07T08:20:18.101Z,100302.59
2022-12-07T08:22:45.327Z,100302.78
2022-12-07T08:25:19.472Z,100295.63
2022-12-07T08:27:54.635Z,100302.78
2022-12-07T08:30:31.323Z,100297.75
2022-12-07T08:33:08.265Z,100303.50
2022-12-07T08:35:42.469Z,100303.97
2022-12-07T08:38:12.363Z,100308.91
2022-12-07T08:40:52.417Z,100310.72
2022-12-07T08:43:20.051Z,100305.44
2022-12-07T08:46:07.332Z,100296.03
2022-12-07T08:48:51.024Z,100294.69
2022-12-07T08:51:18.452Z,100294.34
2022-12-07T08:53:46.414Z,100292.97
2022-12-07T08:56:21.914Z,100297.25
2022-12-07T08:58:54.641Z,100293.03
2022-12-07T09:01:23.967Z,100283.03
2022-12-07T09:03:54.490Z,100283.47
2022-12-07T09:06:28.140Z,100290.34
2022-12-07T09:09:08.276Z,100276.53
2022-12-07T09:11:39.458Z,100272.72
2022-12-07T09:14:13.154Z,100274.34
2022-12-07T09:16:46.539Z,100264.72
2022-12-07T09:19:19.296Z,100269.22
2022-12-07T09:21:49.372Z,100265.81
2022-12-07T09:24:20.547Z,100260.28
2022-12-07T09:26:52.392Z,100260.03
2022-12-07T09:29:23.635Z,100261.94
2022-12-07T09:31:59.800Z,100267.50
2022-12-07T09:34:38.229Z,100255.38
2022-12-07T09:37:08.022Z,100254.69
2022-12-07T09:39:38.859Z,100249.88
2022-12-07T09:42:07.076Z,100245.34
2022-12-07T09:44:44.051Z,100242.88
2022-12-07T09:47:11.684Z,100229.09
2022-12-07T09:52:39.836Z,100221.81
2022-12-07T09:55:18.228Z,100220.56
2022-12-07T09:57:52.739Z,100213.66
2022-12-07T10:00:28.011Z,100217.75
2022-12-07T10:03:00.739Z,100215.25
2022-12-07T10:05:37.807Z,100202.81
2022-12-07T10:08:12.323Z,100199.59
2022-12-07T10:10:43.000Z,100211.28
2022-12-07T10:13:16.590Z,100201.78
2022-12-07T10:15:49.761Z,100197.06
2022-12-07T10:18:42.714Z,100192.28
2022-12-07T10:21:20.510Z,100197.69
2022-12-07T10:24:04.608Z,100194.81
2022-12-07T10:26:34.189Z,100191.69
2022-12-07T10:29:23.157Z,100197.47
2022-12-07T10:32:01.609Z,100199.34
2022-12-07T10:34:39.682Z,100186.03
2022-12-07T10:37:21.194Z,100173.22
2022-12-07T10:39:58.955Z,100172.63
2022-12-07T10:42:31.799Z,100168.66
2022-12-07T10:45:19.057Z,100164.22
2022-12-07T10:48:37.420Z,100162.16
2022-12-07T10:51:21.023Z,100165.31
2022-12-07T10:54:35.881Z,100161.69
2022-12-07T10:57:16.400Z,100163.84
2022-12-07T10:59:58.657Z,100166.81
2022-12-07T11:03:06.438Z,100176.00
2022-12-07T11:05:36.725Z,100170.13
2022-12-07T11:08:44.878Z,100162.66
2022-12-07T11:11:40.133Z,100148.09
2022-12-07T11:14:29.707Z,100141.47
2022-12-07T11:17:03.305Z,100140.13
2022-12-07T11:19:49.242Z,100136.75
2022-12-07T11:22:29.495Z,100134.19
2022-12-07T11:25:09.984Z,100128.25
2022-12-07T11:28:05.667Z,100118.44
2022-12-07T11:30:53.392Z,100118.97
2022-12-07T11:33:39.384Z,100117.38
2022-12-07T12:55:07.861Z,100107.00
2022-12-07T12:57:39.634Z,100103.50
2022-12-07T13:00:17.025Z,100110.06
2022-12-07T13:03:30.691Z,100104.84
2022-12-07T13:06:25.931Z,100101.41
2022-12-07T13:09:04.970Z,100098.41
2022-12-07T13:11:49.175Z,100100.59
2022-12-07T13:14:38.873Z,100100.44
2022-12-07T13:17:35.866Z,100099.78
2022-12-07T13:20:17.496Z,100105.75
2022-12-07T13:22:50.716Z,100106.84
2022-12-07T13:25:21.375Z,100111.44
2022-12-07T13:28:25.836Z,100108.16
2022-12-07T13:31:15.047Z,100103.44
2022-12-07T13:33:47.477Z,100110.84
2022-12-07T13:36:31.158Z,100105.91
2022-12-07T13:39:24.303Z,100103.50
2022-12-07T13:42:11.347Z,100108.66
2022-12-07T13:44:51.782Z,100095.88
2022-12-07T13:48:00.658Z,100098.47
2022-12-07T13:50:34.849Z,100082.56
2022-12-07T13:53:14.877Z,100085.63
2022-12-07T13:55:54.629Z,100086.66
2022-12-07T13:58:33.254Z,100086.72
2022-12-07T14:01:07.344Z,100092.59
2022-12-07T14:03:44.379Z,100090.56
2022-12-07T14:06:28.612Z,100080.31
2022-12-07T14:09:20.715Z,100081.91
2022-12-07T14:11:55.753Z,100083.53
2022-12-07T14:14:36.814Z,100083.03
2022-12-07T14:17:20.316Z,100090.34
2022-12-07T14:19:59.932Z,100085.38
2022-12-07T14:22:39.142Z,100088.50
2022-12-07T14:25:17.368Z,100094.84
2022-12-07T14:27:58.724Z,100077.88
2022-12-07T14:30:55.000Z,100082.38
2022-12-07T14:33:32.002Z,100081.16
2022-12-07T14:35:59.849Z,100080.94
2022-12-07T14:38:33.750Z,100086.25
2022-12-07T14:41:11.917Z,100073.59
2022-12-07T14:44:00.119Z,100070.44
2022-12-07T14:46:33.781Z,100078.22
2022-12-07T14:55:24.312Z,100060.53
2022-12-07T14:57:53.120Z,100070.59
2022-12-07T15:00:28.915Z,100073.41
2022-12-07T15:03:02.830Z,100078.81
2022-12-07T15:05:34.296Z,100077.59
2022-12-07T15:08:07.448Z,100076.78
2022-12-07T15:10:41.456Z,100074.88
2022-12-07T15:13:13.457Z,100076.78
2022-12-07T15:15:43.645Z,100083.03
2022-12-07T15:18:18.223Z,100088.28
2022-12-07T15:20:54.482Z,100091.44
2022-12-07T15:23:28.008Z,100075.63
2022-12-07T15:25:59.326Z,100074.03
2022-12-07T15:28:38.385Z,100095.94
2022-12-07T15:31:46.388Z,100084.34
2022-12-07T15:34:08.699Z,100086.25
2022-12-07T15:36:39.470Z,100086.88
2022-12-07T15:39:14.759Z,100092.38
2022-12-07T15:41:49.617Z,100077.50
2022-12-07T15:44:17.955Z,100085.50
2022-12-07T15:46:46.344Z,100077.75
2022-12-07T15:49:19.607Z,100081.28
2022-12-07T15:51:56.073Z,100083.06
2022-12-07T15:54:29.295Z,100081.47
2022-12-07T15:57:03.331Z,100085.31
2022-12-07T15:59:31.031Z,100077.72
2022-12-07T16:02:08.421Z,100084.63
2022-12-07T16:04:46.231Z,100086.13
2022-12-07T16:07:13.309Z,100100.91
2022-12-07T16:09:50.605Z,100108.94
2022-12-07T16:12:23.017Z,100106.91
2022-12-07T16:14:53.972Z,100101.06
2022-12-07T16:17:23.070Z,100106.50
2022-12-07T16:19:53.123Z,100108.59
2022-12-07T16:22:24.985Z,100104.75
2022-12-07T16:24:52.939Z,100110.69
2022-12-07T16:27:23.515Z,100113.34
2022-12-07T16:29:51.392Z,100105.81
2022-12-07T16:32:33.141Z,100112.47
2022-12-07T16:35:04.515Z,100112.28
2022-12-07T16:37:36.900Z,100096.50
2022-12-07T16:40:10.838Z,100101.13
2022-12-07T16:42:41.434Z,100103.03
2022-12-07T16:45:16.342Z,100109.16
2022-12-07T16:47:46.995Z,100110.69
2022-12-07T16:50:17.925Z,100109.38
2022-12-07T16:52:45.517Z,100109.38
2022-12-07T16:55:16.666Z,100101.25
2022-12-07T16:57:47.503Z,100108.13
2022-12-07T17:00:21.474Z,100104.59
2022-12-07T17:02:48.785Z,100112.56
2022-12-07T17:05:19.276Z,100118.22
2022-12-07T17:07:54.005Z,100129.34
2022-12-07T17:10:27.976Z,100122.72
2022-12-07T17:13:05.982Z,100124.97
2022-12-07T17:15:45.666Z,100122.56
2022-12-07T17:18:16.503Z,100113.75
2022-12-07T17:20:47.585Z,100111.25
2022-12-07T17:23:20.798Z,100119.38
2022-12-07T17:25:51.409Z,100116.63
2022-12-07T17:28:19.243Z,100117.41
2022-12-07T17:30:48.014Z,100125.22
2022-12-07T17:33:21.548Z,100128.59
2022-12-07T17:35:49.211Z,100127.03
2022-12-07T17:38:18.995Z,100138.22
2022-12-07T17:40:48.922Z,100138.81
2022-12-07T17:43:19.569Z,100141.66
2022-12-07T17:45:52.183Z,100141.81
2022-12-07T17:48:23.156Z,100139.22
2022-12-07T17:50:53.361Z,100150.25
2022-12-07T17:53:26.814Z,100152.19
2022-12-07T17:56:27.525Z,100155.38
2022-12-07T17:58:58.389Z,100163.63
2022-12-07T18:01:31.245Z,100170.22
2022-12-07T18:04:02.103Z,100162.25
2022-12-07T18:06:33.473Z,100165.38
2022-12-07T18:09:06.761Z,100173.91
2022-12-07T18:11:45.748Z,100180.16
2022-12-07T18:14:13.155Z,100178.31
2022-12-07T18:16:48.913Z,100178.41
2022-12-07T18:19:16.727Z,100172.28
2022-12-07T18:21:49.089Z,100176.28
2022-12-07T18:24:24.826Z,100161.16
2022-12-07T18:26:52.426Z,100149.59
2022-12-07T18:29:20.646Z,100157.91
2022-12-07T18:31:53.903Z,100156.53
2022-12-07T18:34:24.582Z,100169.88
2022-12-07T18:37:00.958Z,100176.78
2022-12-07T18:39:33.336Z,100174.84
2022-12-07T18:42:02.002Z,100165.53
2022-12-07T18:44:38.835Z,100160.44
2022-12-07T18:47:06.553Z,100158.88
2022-12-07T18:49:41.984Z,100155.31
2022-12-07T18:52:12.670Z,100149.84
2022-12-07T18:54:45.844Z,100156.03
2022-12-07T18:57:16.083Z,100164.09
2022-12-07T18:59:47.864Z,100167.97
2022-12-07T19:02:18.284Z,100170.06
2022-12-07T19:04:48.838Z,100173.25
2022-12-07T19:07:15.982Z,100172.09
2022-12-07T19:09:46.935Z,100184.53
2022-12-07T19:12:17.127Z,100191.19
2022-12-07T19:14:48.220Z,100190.81
2022-12-07T19:17:20.987Z,100183.88
2022-12-07T19:19:49.154Z,100181.00
2022-12-07T19:22:19.172Z,100189.69
2022-12-07T19:24:50.611Z,100191.31
2022-12-07T19:27:22.935Z,100181.16
2022-12-07T19:29:55.183Z,100178.97
2022-12-07T19:32:22.461Z,100178.28
2022-12-07T19:34:56.000Z,100168.69
2022-12-07T19:37:30.841Z,100169.59
2022-12-07T19:40:02.868Z,100176.34
2022-12-07T19:42:30.081Z,100177.63
2022-12-07T19:44:57.638Z,100170.13
2022-12-07T19:47:37.192Z,100171.00
2022-12-07T19:50:08.548Z,100173.53
2022-12-07T19:52:36.904Z,100173.59
2022-12-07T19:55:07.344Z,100172.09
2022-12-07T20:00:32.894Z,100174.38
2022-12-07T20:03:02.785Z,100166.19
2022-12-07T20:05:36.009Z,100175.03
2022-12-07T20:08:07.240Z,100176.19
2022-12-07T20:10:44.547Z,100176.69
2022-12-07T20:13:18.281Z,100181.47
2022-12-07T20:16:18.374Z,100175.22
2022-12-07T20:18:58.257Z,100183.09
2022-12-07T20:21:32.806Z,100196.25
2022-12-07T20:24:04.119Z,100193.22
2022-12-07T20:26:37.890Z,100194.66
2022-12-07T20:29:12.008Z,100189.94
2022-12-07T20:31:46.188Z,100193.41
2022-12-07T20:34:17.741Z,100195.16
2022-12-07T20:36:51.201Z,100187.28
2022-12-07T20:39:30.426Z,100189.81
2022-12-07T20:42:01.243Z,100188.22
2022-12-07T20:44:34.682Z,100178.81
2022-12-07T20:47:03.011Z,100183.53
2022-12-07T20:49:34.466Z,100186.69
2022-12-07T20:52:02.174Z,100190.59
2022-12-07T20:54:36.246Z,100194.94
2022-12-07T20:57:06.915Z,100189.66
2022-12-07T20:59:41.739Z,100200.25
2022-12-07T21:02:16.395Z,100196.19
2022-12-07T21:04:55.591Z,100204.13
2022-12-07T21:07:29.047Z,100199.94
2022-12-07T21:10:06.118Z,100185.97
2022-12-07T21:12:33.805Z,100189.75
2022-12-07T21:15:06.940Z,100205.28
2022-12-07T21:17:37.427Z,100216.91
2022-12-07T21:20:09.262Z,100213.91
2022-12-07T21:22:40.186Z,100208.34
2022-12-07T21:25:10.448Z,100210.44
2022-12-07T21:27:45.867Z,100210.56
2022-12-07T21:30:17.216Z,100216.69
2022-12-07T21:32:48.075Z,100218.97
2022-12-07T21:35:22.164Z,100215.88
2022-12-07T21:37:56.429Z,100212.31
2022-12-07T21:40:30.403Z,100211.53
2022-12-07T21:42:58.554Z,100220.53
2022-12-07T21:45:34.592Z,100224.22
2022-12-07T21:48:08.911Z,100224.44
2022-12-07T21:50:41.571Z,100222.06
2022-12-07T21:53:15.421Z,100223.38
2022-12-07T21:55:45.205Z,100229.06
2022-12-07T21:58:12.345Z,100223.59
2022-12-07T22:00:45.313Z,100213.13
2022-12-07T22:03:15.486Z,100214.25
2022-12-07T22:05:46.439Z,100208.72
2022-12-07T22:08:22.430Z,100204.91
2022-12-07T22:10:49.753Z,100204.13
2022-12-07T22:13:16.876Z,100203.00
2022-12-07T22:15:46.799Z,100197.75
2022-12-07T22:18:18.369Z,100203.34
2022-12-07T22:20:57.637Z,100201.44
2022-12-07T22:23:31.945Z,100204.91
2022-12-07T22:26:04.592Z,100208.94
2022-12-07T22:28:41.871Z,100211.84
2022-12-07T22:31:11.993Z,100215.41
2022-12-07T22:33:42.440Z,100211.16
2022-12-07T22:36:13.642Z,100198.19
2022-12-07T22:38:44.009Z,100205.94
2022-12-07T22:41:29.788Z,100205.25
2022-12-07T22:44:09.023Z,100211.97
2022-12-07T22:46:41.070Z,100208.06
2022-12-07T22:49:12.556Z,100208.28
2022-12-07T22:51:44.599Z,100209.91
2022-12-07T22:54:15.750Z,100206.28
2022-12-07T22:56:46.519Z,100203.22
2022-12-07T22:59:17.048Z,100203.78
2022-12-07T23:01:47.330Z,100193.25
2022-12-07T23:04:28.230Z,100188.50
2022-12-07T23:07:07.509Z,100185.16
2022-12-07T23:09:41.043Z,100186.50
2022-12-07T23:12:16.934Z,100178.06
2022-12-07T23:14:55.783Z,100180.72
2022-12-07T23:17:29.787Z,100183.03
2022-12-07T23:20:00.472Z,100188.53
2022-12-07T23:22:30.986Z,100197.75
2022-12-07T23:25:02.537Z,100191.00
2022-12-07T23:27:39.728Z,100199.09
2022-12-07T23:30:19.227Z,100205.13
2022-12-07T23:32:50.032Z,100205.78
2022-12-07T23:35:24.184Z,100214.41
2022-12-07T23:37:57.561Z,100207.00
2022-12-07T23:40:31.956Z,100200.09
2022-12-07T23:43:06.171Z,100198.00
2022-12-07T23:45:42.618Z,100193.66
2022-12-07T23:48:13.680Z,100195.91
2022-12-07T23:50:44.806Z,100193.34
2022-12-07T23:53:18.794Z,100199.59
2022-12-07T23:55:51.792Z,100213.22
2022-12-07T23:58:26.566Z,100218.63
